Time;durP1;ratioP1;P1;durP2;ratioP2;P2;SDS_P1;SDS_P2;PMS_P1;PMS_P2;Temp;Humidity;BMP_temperature;BMP_pressure;BME280_temperature;BME280_humidity;BME280_pressure;Samples;Min_cycle;Max_cycle;Signal;HPM_P1;HPM_P2
2022/10/22 00:00:54;;;;;;;17.80;13.07;;;12.10;84.10;;;;;;5026493;28;20188;-59
2022/10/22 00:03:20;;;;;;;16.90;12.90;;;12.10;84.00;;;;;;5033294;28;20214;-59
2022/10/22 00:05:46;;;;;;;17.60;12.50;;;12.00;84.20;;;;;;5018891;28;20195;-59
2022/10/22 00:08:13;;;;;;;18.50;12.40;;;12.00;84.40;;;;;;5032173;28;20253;-59
2022/10/22 00:10:39;;;;;;;16.37;13.43;;;12.10;84.30;;;;;;5037247;28;20199;-60
2022/10/22 00:13:05;;;;;;;14.87;11.17;;;12.00;84.20;;;;;;5047178;28;20192;-60
2022/10/22 00:15:31;;;;;;;16.57;11.53;;;12.00;84.20;;;;;;5013913;28;20223;-59
2022/10/22 00:17:56;;;;;;;14.67;13.03;;;12.00;84.20;;;;;;5010731;28;20215;-60
2022/10/22 00:20:22;;;;;;;19.47;12.60;;;12.00;84.30;;;;;;5029787;28;20282;-60
2022/10/22 00:22:48;;;;;;;20.57;13.27;;;11.90;84.30;;;;;;5010183;28;20200;-59
2022/10/22 00:25:14;;;;;;;16.73;12.97;;;12.00;84.40;;;;;;5037284;28;20199;-59
2022/10/22 00:27:40;;;;;;;19.80;12.57;;;11.90;84.30;;;;;;5035916;28;20311;-59
2022/10/22 00:30:06;;;;;;;16.83;11.83;;;11.90;84.30;;;;;;5023269;28;20263;-59
2022/10/22 00:32:32;;;;;;;23.93;11.93;;;12.00;84.30;;;;;;5012834;28;20250;-59
2022/10/22 00:34:57;;;;;;;21.27;12.43;;;11.90;84.30;;;;;;5008691;28;20207;-59
2022/10/22 00:37:23;;;;;;;21.10;13.00;;;11.90;84.40;;;;;;5029527;28;20203;-59
2022/10/22 00:39:49;;;;;;;17.83;12.17;;;11.90;84.60;;;;;;5030121;28;20199;-59
2022/10/22 00:42:21;;;;;;;17.73;11.43;;;11.90;84.50;;;;;;5030276;28;20199;-59
2022/10/22 00:45:03;;;;;;;16.30;11.73;;;11.90;84.50;;;;;;5019225;28;20250;-59
2022/10/22 00:47:55;;;;;;;17.93;12.70;;;12.00;84.60;;;;;;5010145;28;20191;-59
2022/10/22 00:50:26;;;;;;;17.37;12.47;;;11.90;84.70;;;;;;5012874;28;20263;-59
2022/10/22 00:52:53;;;;;;;15.60;12.00;;;11.90;84.70;;;;;;5016688;28;20191;-59
2022/10/22 00:55:21;;;;;;;17.77;13.03;;;11.90;84.70;;;;;;5010093;28;20286;-60
2022/10/22 00:57:47;;;;;;;16.43;12.60;;;11.90;84.70;;;;;;5038024;28;20187;-59
2022/10/22 01:00:14;;;;;;;15.70;12.03;;;11.90;84.60;;;;;;5048102;28;20195;-59
2022/10/22 01:02:39;;;;;;;16.60;12.53;;;11.90;84.50;;;;;;5047184;28;20179;-59
2022/10/22 01:05:06;;;;;;;18.03;13.20;;;11.90;84.40;;;;;;5055935;28;20207;-59
2022/10/22 01:07:39;;;;;;;14.90;12.30;;;12.00;84.40;;;;;;5027946;28;20192;-59
2022/10/22 01:10:15;;;;;;;18.83;12.60;;;11.90;84.50;;;;;;5017790;28;20199;-59
2022/10/22 01:12:44;;;;;;;14.23;11.93;;;11.90;84.40;;;;;;5017577;28;20186;-60
2022/10/22 01:15:22;;;;;;;15.53;11.37;;;11.90;84.40;;;;;;5048605;28;20231;-59
2022/10/22 01:17:56;;;;;;;16.17;12.03;;;11.80;84.50;;;;;;5012501;28;20213;-59
2022/10/22 01:20:37;;;;;;;20.40;13.23;;;11.80;84.60;;;;;;5015713;28;20192;-59
2022/10/22 01:23:09;;;;;;;15.07;11.80;;;11.80;84.70;;;;;;5015322;28;20187;-59
2022/10/22 01:25:41;;;;;;;17.87;11.93;;;11.80;84.60;;;;;;5009311;28;20258;-59
2022/10/22 01:28:16;;;;;;;16.10;11.83;;;11.80;84.40;;;;;;5015251;28;20192;-59
2022/10/22 01:30:44;;;;;;;17.80;11.80;;;11.80;84.40;;;;;;5048448;28;20234;-60
2022/10/22 01:33:14;;;;;;;14.67;10.70;;;11.80;84.30;;;;;;5018191;28;20193;-59
2022/10/22 01:35:43;;;;;;;15.97;13.07;;;11.70;84.30;;;;;;5039432;28;20239;-59
2022/10/22 01:38:13;;;;;;;22.87;11.67;;;11.70;84.30;;;;;;5053189;28;20202;-60
2022/10/22 01:40:40;;;;;;;16.33;12.00;;;11.70;84.30;;;;;;5014634;28;20187;-60
2022/10/22 01:43:09;;;;;;;12.40;11.03;;;11.70;84.60;;;;;;5045579;28;20191;-60
2022/10/22 01:45:38;;;;;;;27.00;12.83;;;11.70;84.60;;;;;;5002426;28;20278;-59
2022/10/22 01:48:28;;;;;;;15.53;12.37;;;11.60;84.50;;;;;;5015042;28;20287;-59
2022/10/22 01:51:34;;;;;;;16.17;11.63;;;11.60;84.60;;;;;;5017712;28;20184;-59
2022/10/22 01:54:26;;;;;;;20.23;12.20;;;11.50;84.60;;;;;;5007370;28;20242;-60
2022/10/22 01:57:04;;;;;;;16.50;12.63;;;11.60;84.60;;;;;;5010451;28;20276;-60
2022/10/22 01:59:35;;;;;;;18.03;12.43;;;11.60;84.60;;;;;;5024897;28;20205;-59
2022/10/22 02:02:29;;;;;;;17.73;12.67;;;11.50;84.50;;;;;;5015187;28;20191;-59
2022/10/22 02:05:07;;;;;;;14.27;12.20;;;11.50;84.60;;;;;;5049481;28;20262;-59
2022/10/22 02:08:02;;;;;;;17.77;12.10;;;11.40;84.50;;;;;;5016650;28;20291;-59
2022/10/22 02:10:29;;;;;;;16.93;11.43;;;11.50;84.60;;;;;;5013878;28;20245;-59
2022/10/22 02:12:57;;;;;;;15.20;12.20;;;11.40;84.40;;;;;;5057160;28;20281;-59
2022/10/22 02:15:25;;;;;;;17.10;13.00;;;11.40;84.50;;;;;;5027840;28;20222;-59
2022/10/22 02:17:54;;;;;;;13.80;11.80;;;11.30;84.40;;;;;;5076993;28;20238;-59
2022/10/22 02:20:27;;;;;;;16.67;10.50;;;11.30;84.50;;;;;;5040629;28;20230;-59
2022/10/22 02:22:53;;;;;;;16.77;11.73;;;11.30;84.50;;;;;;5037828;28;20210;-59
2022/10/22 02:25:21;;;;;;;19.03;12.33;;;11.30;84.40;;;;;;5037298;28;20289;-59
2022/10/22 02:27:52;;;;;;;13.33;10.87;;;11.40;84.40;;;;;;5042566;28;20258;-59
2022/10/22 02:30:21;;;;;;;14.00;11.90;;;11.40;84.30;;;;;;5035430;28;20190;-59
2022/10/22 02:33:03;;;;;;;16.67;11.93;;;11.40;84.20;;;;;;5037396;28;20198;-59
2022/10/22 02:35:30;;;;;;;17.00;12.40;;;11.30;84.30;;;;;;5067122;28;20282;-59
2022/10/22 02:37:58;;;;;;;17.50;11.50;;;11.20;84.90;;;;;;5050923;28;20191;-59
2022/10/22 02:40:24;;;;;;;13.00;10.97;;;11.20;84.90;;;;;;5037407;28;20184;-59
2022/10/22 02:42:50;;;;;;;16.37;11.90;;;11.30;84.80;;;;;;5017136;28;20199;-59
2022/10/22 02:45:20;;;;;;;14.20;12.70;;;11.30;84.90;;;;;;5017580;28;20198;-59
2022/10/22 02:47:47;;;;;;;14.30;12.23;;;11.30;84.90;;;;;;5046923;28;20214;-59
2022/10/22 02:50:12;;;;;;;16.50;12.03;;;11.40;84.70;;;;;;5032814;28;20214;-59
2022/10/22 02:52:38;;;;;;;15.83;11.20;;;11.40;84.60;;;;;;5017637;28;20266;-60
2022/10/22 02:55:05;;;;;;;13.67;10.73;;;11.40;84.50;;;;;;5067563;28;20242;-59
2022/10/22 02:57:31;;;;;;;14.20;10.60;;;11.30;84.50;;;;;;5017709;28;20215;-59
2022/10/22 02:59:57;;;;;;;16.93;11.43;;;11.30;84.50;;;;;;5028971;28;20218;-59
2022/10/22 03:02:23;;;;;;;14.63;11.37;;;11.30;84.50;;;;;;5037439;28;20226;-59
2022/10/22 03:04:48;;;;;;;13.97;11.17;;;11.30;84.50;;;;;;5016933;28;20222;-59
2022/10/22 03:07:14;;;;;;;16.53;11.43;;;11.30;84.40;;;;;;5034416;28;20282;-59
2022/10/22 03:09:40;;;;;;;18.03;12.13;;;11.30;84.90;;;;;;5049544;28;20238;-59
2022/10/22 03:12:07;;;;;;;12.47;10.77;;;11.30;85.00;;;;;;5018295;28;20194;-59
2022/10/22 03:14:33;;;;;;;13.23;10.93;;;11.30;84.80;;;;;;5026158;28;20218;-59
2022/10/22 03:16:59;;;;;;;18.20;11.20;;;11.30;84.80;;;;;;5027720;28;20227;-59
2022/10/22 03:19:24;;;;;;;12.97;9.80;;;11.30;84.70;;;;;;5030809;28;20192;-59
2022/10/22 03:21:58;;;;;;;17.07;10.30;;;11.20;84.60;;;;;;5015487;28;20198;-59
2022/10/22 03:24:28;;;;;;;12.33;10.87;;;11.20;84.70;;;;;;5029002;28;20195;-59
2022/10/22 03:26:54;;;;;;;14.20;10.60;;;11.20;84.50;;;;;;5030036;28;20202;-59
2022/10/22 03:29:22;;;;;;;17.03;11.53;;;11.00;85.00;;;;;;5051213;28;20191;-59
2022/10/22 03:31:48;;;;;;;13.07;11.20;;;10.90;85.10;;;;;;5023467;28;20333;-59
2022/10/22 03:34:14;;;;;;;16.03;11.60;;;10.90;85.30;;;;;;5050495;28;20223;-59
2022/10/22 03:36:40;;;;;;;14.03;11.10;;;10.90;85.20;;;;;;5023521;28;20270;-59
2022/10/22 03:39:06;;;;;;;13.30;10.13;;;10.90;85.10;;;;;;5017084;28;20187;-59
2022/10/22 03:41:33;;;;;;;17.10;11.27;;;10.90;85.20;;;;;;5034197;28;20193;-59
2022/10/22 03:44:01;;;;;;;12.47;10.17;;;10.90;85.10;;;;;;5074375;28;20192;-59
2022/10/22 03:46:27;;;;;;;13.53;10.63;;;10.80;85.00;;;;;;5019997;28;20221;-59
2022/10/22 03:48:53;;;;;;;12.77;10.57;;;10.90;85.00;;;;;;5049472;28;20194;-59
2022/10/22 03:51:19;;;;;;;16.63;11.27;;;10.80;85.00;;;;;;5014129;28;20187;-59
2022/10/22 03:53:44;;;;;;;15.53;11.40;;;10.80;85.20;;;;;;5032854;28;20194;-59
2022/10/22 03:56:11;;;;;;;18.13;11.00;;;10.80;85.10;;;;;;5032282;28;20207;-59
2022/10/22 03:58:39;;;;;;;14.13;11.47;;;10.80;85.00;;;;;;5037526;28;20200;-59
2022/10/22 04:01:09;;;;;;;19.70;11.13;;;10.80;84.80;;;;;;5034130;28;20207;-59
2022/10/22 04:03:35;;;;;;;15.43;11.17;;;10.80;84.70;;;;;;5043508;28;20202;-59
2022/10/22 04:06:06;;;;;;;16.20;10.70;;;10.90;84.60;;;;;;5066234;28;20194;-59
2022/10/22 04:08:32;;;;;;;16.77;11.33;;;10.90;84.80;;;;;;5032548;28;20286;-59
2022/10/22 04:10:58;;;;;;;13.90;12.03;;;10.80;85.30;;;;;;5028767;28;20194;-59
2022/10/22 04:13:24;;;;;;;11.63;10.43;;;10.90;85.50;;;;;;5006153;28;20192;-59
2022/10/22 04:15:50;;;;;;;19.17;11.00;;;10.80;85.00;;;;;;5064756;28;20211;-59
2022/10/22 04:18:20;;;;;;;17.67;10.53;;;10.80;85.00;;;;;;5070111;28;20286;-59
2022/10/22 04:20:46;;;;;;;16.63;11.73;;;10.90;85.00;;;;;;5023976;28;20194;-55
2022/10/22 04:23:12;;;;;;;14.77;11.13;;;10.80;85.00;;;;;;5010345;28;20195;-57
2022/10/22 04:25:38;;;;;;;15.10;9.93;;;10.80;84.90;;;;;;5022541;28;20202;-54
2022/10/22 04:28:08;;;;;;;12.93;10.57;;;10.90;84.80;;;;;;5040062;28;20198;-56
2022/10/22 04:30:35;;;;;;;17.03;10.53;;;10.80;84.70;;;;;;5041971;28;20660;-56
2022/10/22 04:33:01;;;;;;;16.20;11.53;;;10.80;84.90;;;;;;5018904;28;20202;-55
2022/10/22 04:35:27;;;;;;;14.60;11.07;;;10.70;85.00;;;;;;5032094;28;20264;-57
2022/10/22 04:37:54;;;;;;;13.33;10.27;;;10.80;85.00;;;;;;5018541;28;20191;-56
2022/10/22 04:40:20;;;;;;;12.63;10.53;;;10.70;85.20;;;;;;5022640;28;20198;-56
2022/10/22 04:42:45;;;;;;;14.07;10.40;;;10.70;85.20;;;;;;5023510;28;20187;-55
2022/10/22 04:45:11;;;;;;;13.07;9.83;;;10.70;85.20;;;;;;5020624;28;20203;-55
2022/10/22 04:47:37;;;;;;;12.90;9.63;;;10.70;85.20;;;;;;5023467;28;20199;-55
2022/10/22 04:50:03;;;;;;;15.60;8.80;;;10.70;85.10;;;;;;5021152;28;20278;-56
2022/10/22 04:52:29;;;;;;;11.37;9.30;;;10.70;85.10;;;;;;5030807;28;20209;-56
2022/10/22 04:54:55;;;;;;;15.77;10.20;;;10.70;85.10;;;;;;5016563;28;20271;-56
2022/10/22 04:57:21;;;;;;;13.10;9.17;;;10.70;85.20;;;;;;5066631;28;20456;-57
2022/10/22 04:59:46;;;;;;;14.43;9.70;;;10.70;85.10;;;;;;5021518;28;20195;-56
2022/10/22 05:02:12;;;;;;;15.17;10.40;;;10.70;85.10;;;;;;5037138;28;20209;-56
2022/10/22 05:04:38;;;;;;;13.83;9.80;;;10.70;85.00;;;;;;5024401;28;20194;-56
2022/10/22 05:07:03;;;;;;;14.77;10.67;;;10.70;85.00;;;;;;5044933;28;20210;-56
2022/10/22 05:09:29;;;;;;;12.33;9.47;;;10.70;84.90;;;;;;5025757;28;20271;-54
2022/10/22 05:11:55;;;;;;;16.77;10.43;;;10.80;84.80;;;;;;5018383;28;20211;-56
2022/10/22 05:14:23;;;;;;;11.80;9.33;;;10.80;84.90;;;;;;5031499;28;20192;-57
2022/10/22 05:16:49;;;;;;;14.47;9.30;;;10.80;84.90;;;;;;5019228;28;20198;-53
2022/10/22 05:19:24;;;;;;;14.67;9.83;;;10.80;85.00;;;;;;5027088;28;20195;-54
2022/10/22 05:21:52;;;;;;;12.87;9.47;;;10.70;85.10;;;;;;5042245;28;20187;-55
2022/10/22 05:24:18;;;;;;;13.70;10.30;;;10.80;85.00;;;;;;5017534;28;20195;-53
2022/10/22 05:26:43;;;;;;;17.80;10.13;;;10.80;85.00;;;;;;5024976;28;20289;-53
2022/10/22 05:29:09;;;;;;;15.90;9.83;;;10.80;85.00;;;;;;5032514;28;20197;-54
2022/10/22 05:31:35;;;;;;;12.87;8.67;;;10.80;85.10;;;;;;5052691;28;20191;-50
2022/10/22 05:34:01;;;;;;;18.37;9.87;;;10.80;85.10;;;;;;5030555;28;20191;-53
2022/10/22 05:36:27;;;;;;;12.53;9.17;;;10.80;85.20;;;;;;5039379;28;20222;-56
2022/10/22 05:38:53;;;;;;;12.60;9.23;;;10.80;85.20;;;;;;5034860;28;20194;-57
2022/10/22 05:41:22;;;;;;;16.10;9.87;;;10.90;85.20;;;;;;5052316;28;20191;-56
2022/10/22 05:43:48;;;;;;;14.20;9.43;;;10.90;85.20;;;;;;5034512;28;20272;-55
2022/10/22 05:46:18;;;;;;;9.23;8.20;;;10.80;85.30;;;;;;5022716;28;20231;-54
2022/10/22 05:48:52;;;;;;;11.90;8.77;;;10.70;85.70;;;;;;5030390;28;20199;-53
2022/10/22 05:51:18;;;;;;;15.33;9.90;;;10.80;85.60;;;;;;5039665;28;20286;-52
2022/10/22 05:53:44;;;;;;;12.50;8.80;;;10.80;85.50;;;;;;5035196;28;20345;-49
2022/10/22 05:56:15;;;;;;;13.47;9.10;;;10.90;85.50;;;;;;5040354;28;20221;-55
2022/10/22 05:58:43;;;;;;;13.77;9.20;;;10.90;85.50;;;;;;5018446;28;20760;-56
2022/10/22 06:01:15;;;;;;;13.77;8.77;;;10.90;85.60;;;;;;5016963;28;20250;-53
2022/10/22 06:03:41;;;;;;;13.20;8.43;;;10.90;85.80;;;;;;5075574;28;20187;-54
2022/10/22 06:06:18;;;;;;;11.77;8.43;;;10.80;86.20;;;;;;5017517;28;20203;-54
2022/10/22 06:08:50;;;;;;;13.27;9.00;;;10.80;86.80;;;;;;5065728;28;20253;-52
2022/10/22 06:11:17;;;;;;;15.13;9.43;;;10.80;86.60;;;;;;5034175;28;20206;-55
2022/10/22 06:13:47;;;;;;;14.17;9.13;;;10.80;86.70;;;;;;5035195;28;20218;-54
2022/10/22 06:16:19;;;;;;;13.23;8.57;;;10.90;86.80;;;;;;5071554;28;20245;-55
2022/10/22 06:18:45;;;;;;;9.53;8.20;;;10.90;86.60;;;;;;5015204;28;20184;-52
2022/10/22 06:21:13;;;;;;;10.57;8.60;;;11.00;86.50;;;;;;5015801;28;20191;-56
2022/10/22 06:23:40;;;;;;;15.83;8.60;;;11.10;86.40;;;;;;5058792;28;20191;-56
2022/10/22 06:26:07;;;;;;;12.40;8.70;;;11.20;86.50;;;;;;5034202;28;20187;-54
2022/10/22 06:28:33;;;;;;;14.97;8.67;;;11.30;86.40;;;;;;5034785;28;20215;-55
2022/10/22 06:31:00;;;;;;;12.70;8.10;;;11.30;86.40;;;;;;5077978;28;20247;-54
2022/10/22 06:33:26;;;;;;;14.53;8.17;;;11.40;86.30;;;;;;5052721;28;20194;-56
2022/10/22 06:35:52;;;;;;;13.13;9.20;;;11.50;86.40;;;;;;5033179;28;20223;-56
2022/10/22 06:38:17;;;;;;;11.43;8.37;;;11.60;86.40;;;;;;5049872;28;20202;-54
2022/10/22 06:40:43;;;;;;;14.57;9.97;;;11.70;86.50;;;;;;5034656;28;20195;-55
2022/10/22 06:43:13;;;;;;;15.30;9.40;;;11.70;86.90;;;;;;5019756;28;20183;-55
2022/10/22 06:45:39;;;;;;;20.37;10.17;;;11.80;86.80;;;;;;5028498;28;20221;-53
2022/10/22 06:48:05;;;;;;;14.17;8.77;;;11.80;86.50;;;;;;5015024;28;20228;-55
2022/10/22 06:50:33;;;;;;;15.77;9.93;;;11.80;86.30;;;;;;5032419;28;20187;-56
2022/10/22 06:52:59;;;;;;;18.13;10.40;;;11.80;86.50;;;;;;5037017;28;20194;-55
2022/10/22 06:55:24;;;;;;;12.87;9.33;;;11.80;86.50;;;;;;5017174;28;20341;-52
2022/10/22 06:57:50;;;;;;;13.10;9.93;;;11.80;86.50;;;;;;5029207;28;20191;-51
2022/10/22 07:00:16;;;;;;;14.37;9.13;;;11.80;86.50;;;;;;5039891;28;20210;-56
2022/10/22 07:02:42;;;;;;;22.67;9.57;;;12.00;86.30;;;;;;5025255;28;20194;-55
2022/10/22 07:05:08;;;;;;;14.97;9.03;;;12.00;86.30;;;;;;5057532;28;20202;-57
2022/10/22 07:07:33;;;;;;;12.60;9.27;;;12.10;86.20;;;;;;5021222;28;20231;-54
2022/10/22 07:09:59;;;;;;;15.37;9.47;;;12.10;86.10;;;;;;5017360;28;20195;-58
2022/10/22 07:12:25;;;;;;;16.70;9.30;;;12.20;86.30;;;;;;5007504;28;20214;-57
2022/10/22 07:14:50;;;;;;;13.60;8.47;;;12.20;86.50;;;;;;5017588;28;20236;-56
2022/10/22 07:17:16;;;;;;;13.97;9.53;;;12.30;86.40;;;;;;5051528;28;20198;-58
2022/10/22 07:19:42;;;;;;;14.80;8.87;;;12.30;86.30;;;;;;5027249;28;20227;-58
2022/10/22 07:22:08;;;;;;;13.57;8.53;;;12.30;86.40;;;;;;5016799;28;20241;-58
2022/10/22 07:24:33;;;;;;;13.67;8.03;;;12.30;86.50;;;;;;5002345;28;20274;-57
2022/10/22 07:26:59;;;;;;;13.77;8.83;;;12.40;86.60;;;;;;5032908;28;20195;-57
2022/10/22 07:29:25;;;;;;;12.63;9.30;;;12.40;86.70;;;;;;5015231;28;20214;-57
2022/10/22 07:31:50;;;;;;;12.27;8.70;;;12.50;86.60;;;;;;5065162;28;20248;-57
2022/10/22 07:34:16;;;;;;;11.83;8.47;;;12.50;86.50;;;;;;5025741;28;20190;-56
2022/10/22 07:36:42;;;;;;;14.07;9.20;;;12.50;86.50;;;;;;5049665;28;20197;-57
2022/10/22 07:39:08;;;;;;;17.53;9.57;;;12.60;86.20;;;;;;5016607;28;20270;-57
2022/10/22 07:41:33;;;;;;;12.00;8.43;;;12.60;85.90;;;;;;5016665;28;20183;-57
2022/10/22 07:43:59;;;;;;;16.93;10.27;;;12.60;85.70;;;;;;5024450;28;20214;-56
2022/10/22 07:46:25;;;;;;;11.70;8.33;;;12.60;85.50;;;;;;5017268;28;20241;-58
2022/10/22 07:48:51;;;;;;;12.87;8.57;;;12.70;85.50;;;;;;5017394;28;20291;-58
2022/10/22 07:51:17;;;;;;;12.90;8.80;;;12.70;85.40;;;;;;5032448;28;20281;-58
2022/10/22 07:53:43;;;;;;;13.17;8.37;;;12.70;85.10;;;;;;5052064;28;20274;-57
2022/10/22 07:56:09;;;;;;;15.50;8.47;;;12.80;85.10;;;;;;5066525;28;20218;-57
2022/10/22 07:58:34;;;;;;;14.10;8.97;;;12.80;85.10;;;;;;5026137;28;20192;-56
2022/10/22 08:01:01;;;;;;;14.10;9.37;;;12.80;85.10;;;;;;5016189;28;20186;-57
2022/10/22 08:03:28;;;;;;;13.80;8.43;;;12.80;84.70;;;;;;5016089;28;20187;-57
2022/10/22 08:05:54;;;;;;;12.57;8.43;;;12.80;84.80;;;;;;5017718;28;20190;-58
2022/10/22 08:08:20;;;;;;;13.60;8.97;;;12.70;85.70;;;;;;5018593;28;20200;-57
2022/10/22 08:10:49;;;;;;;16.90;8.17;;;12.70;86.30;;;;;;5038239;28;20191;-57
2022/10/22 08:13:15;;;;;;;16.60;9.10;;;12.80;86.50;;;;;;5032680;28;20186;-57
2022/10/22 08:15:42;;;;;;;13.60;8.90;;;12.80;87.00;;;;;;5022653;28;20215;-57
2022/10/22 08:18:08;;;;;;;13.67;9.37;;;12.80;87.10;;;;;;5030741;28;20262;-57
2022/10/22 08:20:33;;;;;;;18.90;9.57;;;12.80;87.30;;;;;;5019924;28;20218;-57
2022/10/22 08:22:59;;;;;;;12.73;9.70;;;12.80;87.70;;;;;;5028466;28;20194;-57
2022/10/22 08:25:25;;;;;;;13.03;8.70;;;12.80;88.30;;;;;;5019353;28;20236;-57
2022/10/22 08:27:51;;;;;;;15.67;10.23;;;12.80;89.30;;;;;;5079242;28;20198;-57
2022/10/22 08:30:17;;;;;;;17.07;9.33;;;12.80;90.10;;;;;;5018976;28;20186;-58
2022/10/22 08:32:43;;;;;;;14.23;9.53;;;12.80;90.90;;;;;;5053550;28;20183;-57
2022/10/22 08:35:09;;;;;;;15.17;9.77;;;12.80;90.90;;;;;;5056716;28;20222;-57
2022/10/22 08:37:35;;;;;;;15.57;9.93;;;12.80;91.10;;;;;;5035638;28;20243;-57
2022/10/22 08:40:01;;;;;;;14.27;9.93;;;12.80;91.50;;;;;;5023669;28;20183;-57
2022/10/22 08:42:39;;;;;;;18.47;11.33;;;12.90;91.70;;;;;;5051385;28;20282;-58
2022/10/22 08:45:27;;;;;;;19.77;11.13;;;12.90;91.80;;;;;;5034125;28;20179;-57
2022/10/22 08:48:04;;;;;;;15.73;11.37;;;12.90;91.60;;;;;;5033413;28;20187;-57
2022/10/22 08:50:37;;;;;;;19.23;9.87;;;12.90;91.90;;;;;;5066408;28;20199;-58
2022/10/22 08:53:11;;;;;;;13.77;10.23;;;12.90;91.80;;;;;;5067183;28;20179;-58
2022/10/22 08:55:37;;;;;;;14.30;9.97;;;12.90;91.90;;;;;;5033526;28;20238;-58
2022/10/22 08:58:17;;;;;;;17.27;10.40;;;12.90;92.00;;;;;;5034660;28;20183;-58
2022/10/22 09:00:57;;;;;;;15.37;10.37;;;13.00;92.30;;;;;;5035014;28;20211;-58
2022/10/22 09:03:38;;;;;;;14.43;10.70;;;13.00;92.40;;;;;;5041752;28;20185;-58
2022/10/22 09:06:07;;;;;;;13.83;9.60;;;13.00;92.60;;;;;;5033316;28;20183;-58
2022/10/22 09:08:35;;;;;;;11.97;9.67;;;13.10;92.60;;;;;;5033090;28;20186;-58
2022/10/22 09:11:06;;;;;;;14.10;9.70;;;13.20;92.70;;;;;;5032726;28;20186;-58
2022/10/22 09:13:32;;;;;;;14.50;10.70;;;13.20;92.70;;;;;;5033189;28;20214;-58
2022/10/22 09:16:13;;;;;;;13.10;9.40;;;13.30;92.80;;;;;;5013395;28;20226;-54
2022/10/22 09:18:47;;;;;;;15.83;10.43;;;13.30;93.10;;;;;;5041204;28;20196;-55
2022/10/22 09:21:36;;;;;;;14.13;11.73;;;13.40;93.20;;;;;;5046474;28;20218;-56
2022/10/22 09:24:10;;;;;;;18.03;12.50;;;13.40;93.30;;;;;;5065455;28;20190;-52
2022/10/22 09:26:37;;;;;;;15.03;11.87;;;13.50;93.00;;;;;;5034741;28;20194;-55
2022/10/22 09:29:04;;;;;;;14.83;11.30;;;13.50;93.10;;;;;;5016469;28;20195;-57
2022/10/22 09:31:32;;;;;;;14.80;11.33;;;13.60;93.20;;;;;;5033580;28;20281;-55
2022/10/22 09:34:04;;;;;;;11.97;9.67;;;13.70;93.10;;;;;;5040766;28;20191;-58
2022/10/22 09:36:30;;;;;;;16.63;10.67;;;13.80;93.10;;;;;;5033098;28;20217;-58
2022/10/22 09:38:56;;;;;;;13.53;10.17;;;13.80;93.20;;;;;;5020072;28;20194;-58
2022/10/22 09:41:28;;;;;;;11.87;8.83;;;13.80;92.60;;;;;;5014096;28;20194;-58
2022/10/22 09:43:54;;;;;;;14.37;9.80;;;13.80;92.60;;;;;;5040344;28;20195;-58
2022/10/22 09:46:22;;;;;;;15.90;10.33;;;13.80;92.60;;;;;;5017457;28;20199;-58
2022/10/22 09:48:59;;;;;;;13.93;10.30;;;13.80;91.80;;;;;;5028655;28;20197;-58
2022/10/22 09:51:34;;;;;;;17.37;10.40;;;13.80;92.30;;;;;;5065649;28;20725;-58
2022/10/22 09:54:12;;;;;;;16.40;10.80;;;13.90;92.50;;;;;;5072403;28;20261;-58
2022/10/22 09:56:42;;;;;;;16.37;10.40;;;13.90;92.50;;;;;;5026423;28;20211;-58
2022/10/22 09:59:23;;;;;;;15.90;10.47;;;13.90;92.10;;;;;;5024870;28;20214;-58
2022/10/22 10:01:59;;;;;;;17.03;10.23;;;13.90;92.50;;;;;;5021801;28;20195;-58
2022/10/22 10:04:25;;;;;;;13.17;10.10;;;13.90;91.50;;;;;;5030943;28;20179;-58
2022/10/22 10:06:55;;;;;;;16.27;11.07;;;13.90;92.10;;;;;;5047813;28;20194;-58
2022/10/22 10:09:23;;;;;;;16.07;11.60;;;13.90;92.20;;;;;;5039349;28;20279;-58
2022/10/22 10:11:59;;;;;;;16.57;10.97;;;13.90;92.60;;;;;;5039857;28;20187;-58
2022/10/22 10:14:52;;;;;;;16.93;10.37;;;13.90;92.60;;;;;;5032835;28;20184;-58
2022/10/22 10:17:47;;;;;;;16.17;10.17;;;13.90;92.50;;;;;;5038009;28;20186;-58
2022/10/22 10:20:44;;;;;;;15.17;11.73;;;14.00;92.70;;;;;;5025905;28;20217;-57
2022/10/22 10:23:26;;;;;;;14.47;9.67;;;14.00;92.90;;;;;;5066592;28;20213;-57
2022/10/22 10:26:19;;;;;;;14.87;11.27;;;14.10;92.90;;;;;;5046580;28;20249;-59
2022/10/22 10:28:57;;;;;;;13.43;8.83;;;14.10;93.00;;;;;;5040603;28;20194;-54
2022/10/22 10:31:44;;;;;;;19.90;11.37;;;14.10;93.00;;;;;;5063830;28;20198;-58
2022/10/22 10:34:35;;;;;;;20.67;11.07;;;14.20;93.00;;;;;;5031506;28;20179;-59
2022/10/22 10:37:13;;;;;;;20.07;11.30;;;14.10;92.90;;;;;;5025305;28;20191;-58
2022/10/22 10:39:59;;;;;;;14.47;10.43;;;14.10;92.50;;;;;;5030311;28;20199;-56
2022/10/22 10:42:50;;;;;;;13.80;9.73;;;14.10;92.80;;;;;;5034182;28;20190;-56
2022/10/22 10:45:41;;;;;;;12.40;9.50;;;14.10;92.70;;;;;;5066678;28;20201;-56
2022/10/22 10:48:28;;;;;;;16.87;11.87;;;14.10;93.10;;;;;;5031934;28;20237;-57
2022/10/22 10:51:18;;;;;;;13.97;10.90;;;14.10;93.10;;;;;;5043952;28;20187;-53
2022/10/22 10:54:26;;;;;;;14.87;9.43;;;14.10;93.30;;;;;;5066647;28;20184;-56
2022/10/22 10:56:54;;;;;;;11.70;9.37;;;14.20;93.40;;;;;;5043772;28;20196;-58
2022/10/22 10:59:44;;;;;;;15.60;10.83;;;14.20;93.60;;;;;;5054749;28;20240;-58
2022/10/22 11:02:44;;;;;;;12.57;9.20;;;14.20;93.70;;;;;;5031759;28;20184;-58
2022/10/22 11:05:12;;;;;;;18.27;11.90;;;14.20;93.90;;;;;;5036141;28;20194;-58
2022/10/22 11:07:46;;;;;;;17.90;11.07;;;14.20;93.90;;;;;;5034699;28;20178;-58
2022/10/22 11:10:30;;;;;;;16.77;12.70;;;14.20;93.80;;;;;;5032472;28;20223;-58
2022/10/22 11:13:12;;;;;;;17.50;11.63;;;14.30;94.00;;;;;;5062900;28;20195;-59
2022/10/22 11:15:39;;;;;;;20.53;13.50;;;14.30;94.00;;;;;;5031670;28;20218;-58
2022/10/22 11:18:42;;;;;;;16.40;12.33;;;14.40;94.10;;;;;;5015248;28;20183;-58
2022/10/22 11:21:23;;;;;;;14.07;11.47;;;14.40;94.30;;;;;;5069598;28;20212;-58
2022/10/22 11:24:19;;;;;;;21.97;13.87;;;14.50;94.40;;;;;;5033221;28;20191;-58
2022/10/22 11:26:53;;;;;;;22.13;13.70;;;14.60;94.50;;;;;;5036767;28;20282;-58
2022/10/22 11:29:24;;;;;;;16.93;11.90;;;14.70;94.60;;;;;;5036856;28;20187;-58
2022/10/22 11:31:53;;;;;;;17.13;11.20;;;14.70;94.00;;;;;;5075768;28;20197;-58
2022/10/22 11:34:38;;;;;;;13.70;12.23;;;14.80;94.20;;;;;;5056857;28;20190;-59
2022/10/22 11:37:05;;;;;;;23.00;13.00;;;14.90;94.10;;;;;;5071944;28;20210;-58
2022/10/22 11:39:52;;;;;;;12.67;10.83;;;14.90;94.00;;;;;;5033847;28;20588;-58
2022/10/22 11:42:30;;;;;;;16.77;11.57;;;15.00;93.80;;;;;;5022551;28;20178;-58
2022/10/22 11:45:05;;;;;;;17.57;11.90;;;14.90;93.60;;;;;;5030582;28;20179;-58
2022/10/22 11:47:56;;;;;;;18.37;11.80;;;15.00;93.60;;;;;;5029760;28;20232;-57
2022/10/22 11:50:42;;;;;;;16.50;12.10;;;14.80;92.70;;;;;;5048203;28;20186;-58
2022/10/22 11:53:13;;;;;;;22.47;12.53;;;14.70;92.40;;;;;;5072274;28;20191;-58
2022/10/22 11:55:45;;;;;;;18.37;12.23;;;14.70;92.70;;;;;;5038743;28;20238;-58
2022/10/22 11:58:45;;;;;;;20.17;13.20;;;14.70;93.00;;;;;;5017506;28;20203;-58
2022/10/22 12:01:10;;;;;;;17.67;11.87;;;14.70;93.40;;;;;;5017189;28;20192;-58
2022/10/22 12:03:43;;;;;;;18.30;12.43;;;14.70;93.70;;;;;;5038100;28;20244;-59
2022/10/22 12:06:11;;;;;;;17.63;13.63;;;14.80;94.00;;;;;;5072239;28;20225;-56
2022/10/22 12:08:50;;;;;;;22.13;14.30;;;14.80;94.30;;;;;;5044152;28;20190;-56
2022/10/22 12:11:21;;;;;;;19.40;13.27;;;14.70;94.30;;;;;;5039325;28;20199;-57
2022/10/22 12:14:14;;;;;;;19.00;11.90;;;14.70;94.20;;;;;;5039726;28;20194;-57
2022/10/22 12:16:47;;;;;;;16.57;12.67;;;14.70;94.40;;;;;;5042546;28;20213;-58
2022/10/22 12:19:37;;;;;;;17.37;12.43;;;14.70;94.60;;;;;;5078844;28;20195;-58
2022/10/22 12:22:20;;;;;;;16.00;12.53;;;14.70;94.60;;;;;;5039539;28;20201;-58
2022/10/22 12:24:48;;;;;;;18.90;13.57;;;14.70;94.80;;;;;;5051139;28;20186;-58
2022/10/22 12:27:21;;;;;;;18.63;13.20;;;14.70;95.00;;;;;;5071331;28;20198;-58
2022/10/22 12:29:47;;;;;;;21.87;13.97;;;14.60;95.20;;;;;;5039715;28;20191;-59
2022/10/22 12:32:15;;;;;;;29.57;15.17;;;14.60;95.40;;;;;;5022258;28;20232;-58
2022/10/22 12:34:49;;;;;;;18.83;14.83;;;14.60;95.40;;;;;;5045856;28;20222;-58
2022/10/22 12:37:16;;;;;;;19.97;13.40;;;14.50;95.40;;;;;;5073965;28;20188;-58
2022/10/22 12:39:43;;;;;;;19.53;14.47;;;14.50;95.40;;;;;;5068998;28;20194;-58
2022/10/22 12:42:13;;;;;;;20.43;13.87;;;14.50;95.40;;;;;;5026472;28;20190;-59
2022/10/22 12:44:40;;;;;;;20.03;14.87;;;14.40;95.40;;;;;;5064552;28;20217;-58
2022/10/22 12:47:09;;;;;;;21.90;15.10;;;14.40;95.50;;;;;;5025703;28;20235;-58
2022/10/22 12:49:41;;;;;;;21.90;15.20;;;14.40;95.60;;;;;;5073186;28;20313;-59